Time;durP1;ratioP1;P1;durP2;ratioP2;P2;SDS_P1;SDS_P2;PMS_P1;PMS_P2;Temp;Humidity;BMP_temperature;BMP_pressure;BME280_temperature;BME280_humidity;BME280_pressure;Samples;Min_cycle;Max_cycle;Signal;HPM_P1;HPM_P2
2023/03/03 00:01:15;;;;;;;5.63;3.42;;;5.30;99.90;;;;;;4950847;29;20052;-58
2023/03/03 00:03:42;;;;;;;9.98;2.90;;;5.30;99.90;;;;;;4950948;29;20232;-57
2023/03/03 00:06:10;;;;;;;4.82;2.90;;;5.30;99.90;;;;;;4934209;29;20048;-57
2023/03/03 00:08:37;;;;;;;4.88;2.38;;;5.30;99.90;;;;;;4949943;29;20487;-58
2023/03/03 00:11:05;;;;;;;5.85;2.95;;;5.30;99.90;;;;;;4950585;29;20146;-57
2023/03/03 00:13:37;;;;;;;10.05;3.10;;;5.30;99.90;;;;;;4949567;28;20118;-57
2023/03/03 00:16:30;;;;;;;9.60;3.60;;;5.30;99.90;;;;;;4950983;29;20418;-57
2023/03/03 00:18:57;;;;;;;9.07;2.78;;;5.40;99.90;;;;;;4951149;29;20051;-56
2023/03/03 00:21:40;;;;;;;6.82;3.30;;;5.30;99.90;;;;;;4935060;29;20135;-59
2023/03/03 00:24:13;;;;;;;5.50;3.13;;;5.30;99.90;;;;;;4952583;28;20405;-61
2023/03/03 00:26:41;;;;;;;8.70;3.20;;;5.30;99.90;;;;;;4952122;29;20043;-55
2023/03/03 00:29:40;;;;;;;4.88;2.85;;;5.20;99.90;;;;;;4951830;29;20146;-58
2023/03/03 00:32:25;;;;;;;9.85;3.97;;;5.30;99.90;;;;;;4910801;29;20052;-56
2023/03/03 00:34:54;;;;;;;9.25;4.15;;;5.30;99.90;;;;;;4951838;29;20126;-57
2023/03/03 00:37:34;;;;;;;6.15;2.65;;;5.30;99.90;;;;;;4934786;29;20573;-53
2023/03/03 00:40:19;;;;;;;11.70;4.70;;;5.30;99.90;;;;;;4951731;29;20138;-56
2023/03/03 00:42:50;;;;;;;9.68;3.72;;;5.40;99.90;;;;;;4952192;29;20082;-55
2023/03/03 00:45:53;;;;;;;4.35;3.03;;;5.40;99.90;;;;;;4919574;29;20065;-58
2023/03/03 00:48:24;;;;;;;8.70;3.15;;;5.40;99.90;;;;;;4952115;29;20064;-58
2023/03/03 00:51:01;;;;;;;7.70;3.20;;;5.40;99.90;;;;;;4952230;29;20043;-57
2023/03/03 00:53:29;;;;;;;7.63;2.53;;;5.40;99.90;;;;;;4951465;29;20668;-57
2023/03/03 00:55:56;;;;;;;4.57;2.92;;;5.40;99.90;;;;;;4948455;29;20043;-58
2023/03/03 00:58:23;;;;;;;11.88;3.10;;;5.50;99.90;;;;;;4934532;29;20511;-57
2023/03/03 01:00:51;;;;;;;4.93;3.42;;;5.50;99.90;;;;;;4951437;29;20039;-57
2023/03/03 01:03:20;;;;;;;6.13;3.20;;;5.50;99.90;;;;;;4951539;29;20083;-58
2023/03/03 01:05:47;;;;;;;13.32;3.90;;;5.50;99.90;;;;;;4918998;29;20560;-58
2023/03/03 01:08:14;;;;;;;7.13;3.97;;;5.40;99.90;;;;;;4968875;28;20055;-58
2023/03/03 01:10:49;;;;;;;8.98;3.40;;;5.50;99.90;;;;;;4953524;28;20051;-60
2023/03/03 01:13:17;;;;;;;8.25;3.65;;;5.50;99.90;;;;;;4900949;29;20103;-59
2023/03/03 01:15:44;;;;;;;11.23;5.60;;;5.50;99.90;;;;;;4947029;29;20050;-60
2023/03/03 01:18:10;;;;;;;5.85;3.83;;;5.50;99.90;;;;;;4902945;29;20055;-56
2023/03/03 01:20:37;;;;;;;9.25;3.90;;;5.40;99.90;;;;;;4933677;29;20047;-56
2023/03/03 01:23:04;;;;;;;6.15;3.90;;;5.50;99.90;;;;;;4950849;29;20053;-58
2023/03/03 01:25:31;;;;;;;6.32;3.80;;;5.50;99.90;;;;;;4950886;28;20118;-57
2023/03/03 01:27:58;;;;;;;8.60;3.92;;;5.50;99.90;;;;;;4951049;29;20061;-58
2023/03/03 01:30:25;;;;;;;10.07;3.47;;;5.50;99.90;;;;;;4950851;29;20062;-58
2023/03/03 01:32:51;;;;;;;7.55;4.28;;;5.50;99.90;;;;;;4950613;29;20074;-57
2023/03/03 01:35:18;;;;;;;8.93;4.70;;;5.50;99.90;;;;;;4949248;29;20053;-56
2023/03/03 01:37:45;;;;;;;5.82;4.20;;;5.50;99.90;;;;;;4951071;29;20051;-57
2023/03/03 01:40:23;;;;;;;8.52;4.50;;;5.50;99.90;;;;;;4950436;29;20304;-57
2023/03/03 01:42:51;;;;;;;10.43;4.93;;;5.50;99.90;;;;;;4950588;29;20051;-57
2023/03/03 01:45:39;;;;;;;9.75;4.50;;;5.50;99.90;;;;;;4950588;29;20109;-53
2023/03/03 01:48:26;;;;;;;7.95;3.80;;;5.50;99.90;;;;;;4933781;29;20061;-55
2023/03/03 01:50:54;;;;;;;9.70;5.55;;;5.50;99.90;;;;;;4938433;29;20480;-56
2023/03/03 01:53:37;;;;;;;6.43;4.25;;;5.50;99.90;;;;;;4936149;29;20067;-57
2023/03/03 01:56:05;;;;;;;6.45;3.92;;;5.50;99.90;;;;;;4935543;29;20085;-58
2023/03/03 01:58:39;;;;;;;14.43;4.10;;;5.50;99.90;;;;;;4920172;29;20442;-60
2023/03/03 02:01:12;;;;;;;7.72;3.78;;;5.50;99.90;;;;;;4951682;29;20574;-58
2023/03/03 02:03:39;;;;;;;9.23;3.40;;;5.50;99.90;;;;;;4924145;29;20234;-58
2023/03/03 02:06:08;;;;;;;9.25;4.07;;;5.50;99.90;;;;;;4917955;29;20293;-58
2023/03/03 02:08:58;;;;;;;12.85;5.30;;;5.50;99.90;;;;;;4933405;29;20506;-58
2023/03/03 02:11:25;;;;;;;7.13;3.60;;;5.40;99.90;;;;;;4934361;29;20061;-57
2023/03/03 02:13:52;;;;;;;12.38;4.03;;;5.40;99.90;;;;;;4950227;29;20047;-58
2023/03/03 02:16:18;;;;;;;10.82;4.25;;;5.40;99.90;;;;;;4950335;29;20047;-57
2023/03/03 02:18:45;;;;;;;7.28;4.30;;;5.40;99.90;;;;;;4950562;29;20051;-56
2023/03/03 02:21:18;;;;;;;6.50;3.58;;;5.40;99.90;;;;;;4949767;29;20051;-58
2023/03/03 02:24:06;;;;;;;8.40;4.53;;;5.40;99.90;;;;;;4949959;29;20127;-57
2023/03/03 02:26:34;;;;;;;6.88;4.00;;;5.40;99.90;;;;;;4950037;29;20051;-57
2023/03/03 02:29:02;;;;;;;13.02;4.45;;;5.30;99.90;;;;;;4929763;29;20598;-57
2023/03/03 02:31:29;;;;;;;11.10;4.90;;;5.40;99.90;;;;;;4955359;28;20057;-55
2023/03/03 02:33:56;;;;;;;13.57;4.55;;;5.40;99.90;;;;;;4949703;29;20120;-58
2023/03/03 02:36:28;;;;;;;13.23;4.57;;;5.30;99.90;;;;;;4949600;29;20086;-57
2023/03/03 02:38:58;;;;;;;13.88;6.25;;;5.40;99.90;;;;;;4949324;29;20086;-57
2023/03/03 02:41:26;;;;;;;8.68;4.45;;;5.40;99.90;;;;;;4932648;29;20500;-55
2023/03/03 02:44:03;;;;;;;8.98;4.55;;;5.40;99.90;;;;;;4949759;29;20050;-55
2023/03/03 02:46:40;;;;;;;10.85;5.10;;;5.40;99.90;;;;;;4939736;28;20138;-57
2023/03/03 02:49:07;;;;;;;5.68;3.85;;;5.40;99.90;;;;;;4918357;29;20086;-57
2023/03/03 02:51:34;;;;;;;11.52;4.43;;;5.40;99.90;;;;;;4949819;29;20051;-57
2023/03/03 02:54:01;;;;;;;5.53;4.03;;;5.40;99.90;;;;;;4949478;29;20057;-57
2023/03/03 02:56:28;;;;;;;5.47;4.22;;;5.40;99.90;;;;;;4949995;29;20051;-56
2023/03/03 02:58:55;;;;;;;10.70;4.30;;;5.30;99.90;;;;;;4932206;29;20047;-58
2023/03/03 03:01:22;;;;;;;8.40;4.68;;;5.30;99.90;;;;;;4950254;28;20110;-58
2023/03/03 03:03:49;;;;;;;13.15;4.53;;;5.30;99.90;;;;;;4939647;29;20054;-55
2023/03/03 03:06:15;;;;;;;7.25;4.55;;;5.40;99.90;;;;;;4949252;29;20051;-57
2023/03/03 03:08:42;;;;;;;7.15;4.25;;;5.30;99.90;;;;;;4948748;29;20051;-57
2023/03/03 03:11:09;;;;;;;9.93;4.18;;;5.30;99.90;;;;;;4932683;29;20051;-56
2023/03/03 03:13:35;;;;;;;11.38;4.30;;;5.40;99.90;;;;;;4949492;29;20514;-57
2023/03/03 03:16:02;;;;;;;10.20;4.82;;;5.40;99.90;;;;;;4950074;29;20057;-52
2023/03/03 03:18:29;;;;;;;8.48;4.75;;;5.30;99.90;;;;;;4957564;28;20630;-53
2023/03/03 03:20:56;;;;;;;7.90;5.63;;;5.30;99.90;;;;;;4932771;29;20051;-57
2023/03/03 03:23:23;;;;;;;7.70;4.20;;;5.30;99.90;;;;;;4949330;29;20047;-57
2023/03/03 03:25:49;;;;;;;12.25;4.72;;;5.30;99.90;;;;;;4949573;29;20541;-56
2023/03/03 03:28:17;;;;;;;11.38;4.25;;;5.20;99.90;;;;;;4950088;29;20139;-58
2023/03/03 03:30:44;;;;;;;8.63;4.63;;;5.20;99.90;;;;;;4932907;29;20083;-55
2023/03/03 03:33:11;;;;;;;12.40;5.15;;;5.30;99.90;;;;;;4955642;28;20530;-56
2023/03/03 03:35:44;;;;;;;8.20;4.82;;;5.20;99.90;;;;;;4951091;28;20044;-56
2023/03/03 03:38:11;;;;;;;13.48;5.47;;;5.20;99.90;;;;;;4949937;29;20055;-58
2023/03/03 03:40:38;;;;;;;9.30;5.10;;;5.20;99.90;;;;;;4949624;29;20511;-54
2023/03/03 03:43:04;;;;;;;10.80;4.47;;;5.20;99.90;;;;;;4949415;29;20061;-57
2023/03/03 03:45:31;;;;;;;9.73;5.72;;;5.20;99.90;;;;;;4932373;29;20677;-54
2023/03/03 03:47:58;;;;;;;11.52;4.88;;;5.20;99.90;;;;;;4954070;28;20046;-56
2023/03/03 03:50:26;;;;;;;18.15;5.45;;;5.20;99.90;;;;;;4960605;28;20045;-56
2023/03/03 03:52:53;;;;;;;11.73;4.95;;;5.20;99.90;;;;;;4936346;29;20051;-58
2023/03/03 03:55:21;;;;;;;8.45;4.78;;;5.20;99.90;;;;;;4952768;29;20047;-59
2023/03/03 03:57:48;;;;;;;7.50;3.63;;;5.20;99.90;;;;;;4953102;29;20055;-56
2023/03/03 04:00:15;;;;;;;8.43;4.72;;;5.20;99.90;;;;;;4952581;29;20053;-55
2023/03/03 04:02:41;;;;;;;7.35;4.32;;;5.20;99.90;;;;;;4935990;29;20379;-56
2023/03/03 04:05:09;;;;;;;10.77;5.10;;;5.20;99.90;;;;;;4954176;28;20119;-56
2023/03/03 04:07:36;;;;;;;5.95;4.55;;;5.20;99.90;;;;;;4952598;29;20047;-57
2023/03/03 04:10:03;;;;;;;9.15;5.03;;;5.20;99.90;;;;;;4935788;29;20475;-58
2023/03/03 04:12:37;;;;;;;8.48;5.10;;;5.20;99.90;;;;;;4952527;29;20047;-57
2023/03/03 04:15:05;;;;;;;7.40;3.83;;;5.10;99.90;;;;;;4952825;29;20059;-57
2023/03/03 04:17:32;;;;;;;6.78;4.53;;;5.20;99.90;;;;;;4961590;28;20050;-55
2023/03/03 04:19:59;;;;;;;10.25;4.10;;;5.20;99.90;;;;;;4952804;29;20051;-54
2023/03/03 04:22:26;;;;;;;5.53;3.92;;;5.10;99.90;;;;;;4952312;29;20063;-58
2023/03/03 04:24:52;;;;;;;5.75;4.13;;;5.20;99.90;;;;;;4952808;29;20058;-56
2023/03/03 04:27:19;;;;;;;7.57;3.83;;;5.20;99.90;;;;;;4952098;29;20039;-53
2023/03/03 04:29:46;;;;;;;15.43;4.78;;;5.20;99.90;;;;;;4951696;29;20062;-56
2023/03/03 04:32:12;;;;;;;11.95;3.67;;;5.20;99.90;;;;;;4951929;29;20058;-58
2023/03/03 04:34:39;;;;;;;7.38;4.18;;;5.20;99.90;;;;;;4952103;29;20098;-58
2023/03/03 04:37:06;;;;;;;6.28;4.15;;;5.20;99.90;;;;;;4952063;29;20504;-54
2023/03/03 04:39:33;;;;;;;8.07;3.75;;;5.20;99.90;;;;;;4952289;29;20055;-56
2023/03/03 04:41:59;;;;;;;9.95;3.13;;;5.20;99.90;;;;;;4951940;29;20709;-56
2023/03/03 04:44:26;;;;;;;13.80;4.53;;;5.20;99.90;;;;;;4952480;29;20062;-56
2023/03/03 04:46:53;;;;;;;11.65;4.32;;;5.10;99.90;;;;;;4951827;29;20046;-56
2023/03/03 04:49:20;;;;;;;10.00;4.55;;;5.10;99.90;;;;;;4935257;29;20152;-56
2023/03/03 04:51:47;;;;;;;4.80;3.35;;;5.10;99.90;;;;;;4951789;29;20051;-57
2023/03/03 04:54:13;;;;;;;8.02;3.85;;;5.10;99.90;;;;;;4951927;29;20134;-56
2023/03/03 04:56:40;;;;;;;6.32;3.78;;;5.10;99.90;;;;;;4951758;29;20043;-59
2023/03/03 04:59:07;;;;;;;6.43;3.58;;;5.10;99.90;;;;;;4951979;29;20546;-57
2023/03/03 05:01:33;;;;;;;5.35;3.22;;;5.10;99.90;;;;;;4951353;28;20619;-57
2023/03/03 05:04:00;;;;;;;5.82;3.63;;;5.10;99.90;;;;;;4951562;29;20062;-57
2023/03/03 05:06:27;;;;;;;6.57;4.43;;;5.10;99.90;;;;;;4934916;29;20149;-58
2023/03/03 05:08:54;;;;;;;7.13;3.58;;;5.10;99.90;;;;;;4951049;29;20063;-59
2023/03/03 05:11:20;;;;;;;5.80;3.25;;;5.10;99.90;;;;;;4951890;29;20055;-57
2023/03/03 05:13:47;;;;;;;8.30;3.78;;;5.10;99.90;;;;;;4951380;29;20657;-58
2023/03/03 05:16:14;;;;;;;9.05;3.65;;;5.00;99.90;;;;;;4951850;29;20043;-56
2023/03/03 05:18:41;;;;;;;12.40;3.75;;;5.00;99.90;;;;;;4951305;29;20051;-56
2023/03/03 05:21:07;;;;;;;10.70;3.40;;;5.10;99.90;;;;;;4951537;29;20043;-56
2023/03/03 05:23:34;;;;;;;5.13;3.53;;;5.10;99.90;;;;;;4934221;29;20047;-58
2023/03/03 05:26:01;;;;;;;6.97;3.75;;;5.00;99.90;;;;;;4951701;29;20411;-57
2023/03/03 05:28:27;;;;;;;9.07;3.55;;;5.00;99.90;;;;;;4950960;29;20509;-57
2023/03/03 05:30:54;;;;;;;7.80;3.72;;;5.00;99.90;;;;;;4951177;29;20423;-57
2023/03/03 05:33:21;;;;;;;7.57;3.13;;;5.00;99.90;;;;;;4950840;29;20043;-58
2023/03/03 05:35:52;;;;;;;9.55;3.40;;;5.00;99.90;;;;;;4934257;29;20158;-57
2023/03/03 05:38:19;;;;;;;5.68;2.95;;;5.00;99.90;;;;;;4950798;29;20047;-58
2023/03/03 05:40:46;;;;;;;5.90;2.78;;;4.90;99.90;;;;;;4951110;29;20047;-58
2023/03/03 05:43:13;;;;;;;4.63;3.10;;;5.00;99.90;;;;;;4950798;29;20670;-59
2023/03/03 05:45:39;;;;;;;5.38;3.28;;;4.90;99.90;;;;;;4951109;29;20047;-56
2023/03/03 05:48:06;;;;;;;6.53;2.75;;;4.90;99.90;;;;;;4950891;29;20047;-58
2023/03/03 05:50:33;;;;;;;4.90;2.35;;;4.90;99.90;;;;;;4950655;29;20047;-56
2023/03/03 05:53:00;;;;;;;7.35;2.80;;;4.90;99.90;;;;;;4950960;29;20134;-56
2023/03/03 05:55:26;;;;;;;6.60;3.17;;;4.90;99.90;;;;;;4950737;29;20062;-57
2023/03/03 05:57:54;;;;;;;6.00;2.80;;;4.90;99.90;;;;;;4951002;29;20074;-56
2023/03/03 06:00:21;;;;;;;6.55;3.15;;;5.00;99.90;;;;;;4950466;29;20051;-56
2023/03/03 06:02:48;;;;;;;3.85;2.67;;;4.90;99.90;;;;;;4950702;29;20134;-57
2023/03/03 06:05:14;;;;;;;7.32;2.10;;;4.90;99.90;;;;;;4933355;29;20062;-63
2023/03/03 06:07:41;;;;;;;5.40;3.35;;;4.90;99.90;;;;;;4933511;29;20131;-54
2023/03/03 06:10:09;;;;;;;3.40;2.60;;;4.90;99.90;;;;;;4950257;29;20051;-59
2023/03/03 06:12:37;;;;;;;3.33;2.28;;;4.90;99.90;;;;;;4949814;28;20058;-54
2023/03/03 06:15:05;;;;;;;7.82;2.88;;;4.90;99.90;;;;;;4950745;28;20126;-57
2023/03/03 06:17:32;;;;;;;10.48;3.13;;;4.90;99.90;;;;;;4957292;28;20051;-56
2023/03/03 06:19:59;;;;;;;10.07;3.45;;;5.20;99.90;;;;;;4950048;29;20054;-56
2023/03/03 06:22:26;;;;;;;4.53;3.28;;;4.90;99.90;;;;;;4950728;29;20050;-55
2023/03/03 06:24:52;;;;;;;4.35;3.00;;;4.90;99.90;;;;;;4950952;29;20047;-57
2023/03/03 06:27:19;;;;;;;5.50;2.90;;;4.80;99.90;;;;;;4951996;29;20051;-57
2023/03/03 06:29:46;;;;;;;6.90;2.72;;;4.80;99.90;;;;;;4951841;29;20051;-57
2023/03/03 06:32:13;;;;;;;3.50;1.98;;;4.70;99.90;;;;;;4934685;29;20509;-54
2023/03/03 06:34:40;;;;;;;11.38;2.92;;;4.70;99.90;;;;;;4934401;29;20047;-58
2023/03/03 06:37:07;;;;;;;6.55;2.58;;;4.80;99.90;;;;;;4951247;29;20049;-56
2023/03/03 06:39:33;;;;;;;8.25;3.28;;;4.90;99.90;;;;;;4934222;29;20055;-57
2023/03/03 06:42:00;;;;;;;12.23;3.15;;;4.80;99.90;;;;;;4949855;29;20047;-57
2023/03/03 06:44:27;;;;;;;14.18;3.33;;;4.90;99.90;;;;;;4950302;29;20107;-58
2023/03/03 06:46:56;;;;;;;6.85;3.15;;;4.90;99.90;;;;;;4949982;29;20102;-59
2023/03/03 06:49:23;;;;;;;6.05;2.83;;;4.90;99.90;;;;;;4933165;29;20102;-59
2023/03/03 06:51:50;;;;;;;19.70;7.18;;;4.90;99.90;;;;;;4932912;29;20384;-59
2023/03/03 06:54:18;;;;;;;5.38;2.78;;;4.90;99.90;;;;;;4950061;29;20055;-58
2023/03/03 06:56:45;;;;;;;9.65;4.03;;;4.90;99.90;;;;;;4949813;29;20051;-56
2023/03/03 06:59:19;;;;;;;3.92;2.90;;;4.80;99.90;;;;;;4949856;29;20478;-58
2023/03/03 07:01:47;;;;;;;10.23;2.88;;;4.90;99.90;;;;;;4950553;28;20043;-58
2023/03/03 07:04:29;;;;;;;5.93;3.17;;;4.80;99.90;;;;;;4949980;29;20661;-56
2023/03/03 07:06:58;;;;;;;9.63;3.20;;;4.90;99.90;;;;;;4949587;29;20367;-59
2023/03/03 07:09:26;;;;;;;9.15;3.20;;;4.80;99.90;;;;;;4932750;29;20150;-58
2023/03/03 07:11:59;;;;;;;15.95;3.05;;;4.90;99.90;;;;;;4948979;29;20134;-56
2023/03/03 07:14:25;;;;;;;14.50;4.32;;;4.90;99.90;;;;;;4917579;29;20238;-56
2023/03/03 07:16:57;;;;;;;10.48;2.97;;;5.00;99.90;;;;;;4949684;29;20046;-57
2023/03/03 07:19:32;;;;;;;11.98;3.17;;;4.90;99.90;;;;;;4949802;29;20134;-57
2023/03/03 07:22:15;;;;;;;9.90;3.47;;;4.90;99.90;;;;;;4949408;29;20521;-58
2023/03/03 07:24:43;;;;;;;6.15;3.72;;;5.00;99.90;;;;;;4938298;29;20051;-58
2023/03/03 07:27:23;;;;;;;11.60;3.15;;;5.00;99.90;;;;;;4952904;29;20055;-56
2023/03/03 07:29:51;;;;;;;6.50;3.00;;;5.00;99.90;;;;;;4953600;29;20055;-58
2023/03/03 07:32:25;;;;;;;9.75;3.90;;;4.90;99.90;;;;;;4952872;29;20058;-57
2023/03/03 07:34:54;;;;;;;5.43;2.88;;;5.00;99.90;;;;;;4936282;29;20051;-58
2023/03/03 07:37:34;;;;;;;8.48;3.42;;;5.00;99.90;;;;;;4953006;29;20146;-56
2023/03/03 07:40:05;;;;;;;7.18;2.95;;;5.00;99.90;;;;;;4926948;29;20421;-53
2023/03/03 07:42:39;;;;;;;7.45;2.38;;;5.10;99.90;;;;;;4934080;29;20051;-57
2023/03/03 07:45:30;;;;;;;21.30;4.05;;;5.10;99.90;;;;;;4925131;29;20055;-54
2023/03/03 07:48:29;;;;;;;7.32;2.85;;;5.10;99.90;;;;;;4943401;29;20051;-56
2023/03/03 07:50:57;;;;;;;7.07;2.65;;;5.10;99.90;;;;;;4937476;29;20057;-56
2023/03/03 07:53:26;;;;;;;6.95;3.60;;;5.10;99.90;;;;;;4932105;29;20043;-55
2023/03/03 07:55:53;;;;;;;8.15;3.20;;;5.10;99.90;;;;;;4949918;29;20051;-56
2023/03/03 07:58:38;;;;;;;11.77;4.03;;;5.10;99.90;;;;;;4949741;29;20043;-58
2023/03/03 08:01:41;;;;;;;10.35;4.00;;;5.10;99.90;;;;;;4949440;29;20130;-58
2023/03/03 08:04:19;;;;;;;4.85;2.60;;;5.20;99.90;;;;;;4949846;28;20054;-59
2023/03/03 08:06:48;;;;;;;8.93;3.83;;;5.20;99.90;;;;;;4951256;29;20066;-57
2023/03/03 08:09:20;;;;;;;9.13;3.85;;;5.20;99.90;;;;;;4951903;29;20061;-54
2023/03/03 08:12:08;;;;;;;6.50;3.20;;;5.30;99.90;;;;;;4952268;29;20491;-55
2023/03/03 08:14:36;;;;;;;9.50;3.53;;;5.30;99.90;;;;;;4935173;29;20087;-56
2023/03/03 08:17:23;;;;;;;10.15;3.50;;;5.40;99.90;;;;;;4951132;29;20047;-55
2023/03/03 08:19:50;;;;;;;7.32;3.35;;;5.30;99.90;;;;;;4951692;29;20700;-55
2023/03/03 08:22:29;;;;;;;5.75;3.03;;;5.40;99.90;;;;;;4934091;29;20055;-63
2023/03/03 08:24:56;;;;;;;7.78;3.20;;;5.40;99.90;;;;;;4951210;29;20054;-57
2023/03/03 08:27:23;;;;;;;7.47;3.75;;;5.50;99.90;;;;;;4952222;29;20047;-56
2023/03/03 08:29:50;;;;;;;8.77;3.58;;;5.50;99.90;;;;;;4950807;29;20057;-56
2023/03/03 08:32:16;;;;;;;7.60;3.80;;;5.50;99.90;;;;;;4951775;29;20049;-54
2023/03/03 08:34:43;;;;;;;10.35;4.93;;;5.50;99.90;;;;;;4950037;28;20051;-57
2023/03/03 08:37:10;;;;;;;11.63;4.18;;;5.70;99.90;;;;;;4951693;29;20134;-57
2023/03/03 08:39:37;;;;;;;10.32;3.13;;;5.60;99.90;;;;;;4934663;29;20054;-57
2023/03/03 08:42:03;;;;;;;8.68;4.45;;;5.70;99.90;;;;;;4951796;29;20043;-55
2023/03/03 08:44:30;;;;;;;12.07;4.15;;;5.70;99.90;;;;;;4951378;29;20133;-57
2023/03/03 08:46:57;;;;;;;9.88;4.38;;;5.80;99.90;;;;;;4934411;29;20146;-58
2023/03/03 08:49:24;;;;;;;7.88;3.40;;;5.90;99.90;;;;;;4934363;29;20047;-55
2023/03/03 08:51:51;;;;;;;6.97;2.83;;;6.00;99.90;;;;;;4951435;29;20485;-56
2023/03/03 08:54:18;;;;;;;7.18;3.38;;;6.10;99.90;;;;;;4951211;29;20167;-57
2023/03/03 08:56:45;;;;;;;7.38;3.80;;;6.10;99.90;;;;;;4950882;29;20047;-54
2023/03/03 08:59:12;;;;;;;10.55;3.63;;;6.10;99.90;;;;;;4951391;29;20624;-56
2023/03/03 09:01:39;;;;;;;13.20;4.68;;;6.10;99.90;;;;;;4951041;29;20051;-55
2023/03/03 09:04:05;;;;;;;11.88;3.42;;;6.20;99.90;;;;;;4950940;29;20051;-57
2023/03/03 09:06:32;;;;;;;11.13;3.90;;;6.30;99.90;;;;;;4950640;29;20058;-60
2023/03/03 09:09:00;;;;;;;13.93;3.92;;;6.30;99.90;;;;;;4951016;29;20135;-57
2023/03/03 09:11:27;;;;;;;5.80;3.38;;;6.40;99.90;;;;;;4950768;29;20502;-54
2023/03/03 09:14:02;;;;;;;10.00;2.97;;;6.40;99.90;;;;;;4933950;29;20158;-54
2023/03/03 09:16:30;;;;;;;13.55;3.10;;;6.40;99.90;;;;;;4950552;29;20053;-57
2023/03/03 09:18:57;;;;;;;6.82;3.40;;;6.50;99.90;;;;;;4918435;29;20535;-55
2023/03/03 09:21:25;;;;;;;5.20;3.25;;;6.60;99.90;;;;;;4933959;29;20115;-56
2023/03/03 09:23:57;;;;;;;11.13;2.97;;;6.60;99.90;;;;;;4951090;29;20545;-56
2023/03/03 09:26:29;;;;;;;9.02;3.03;;;6.70;99.90;;;;;;4951095;29;20498;-53
2023/03/03 09:29:18;;;;;;;7.15;3.17;;;6.60;99.90;;;;;;4951378;29;20049;-55
2023/03/03 09:31:53;;;;;;;5.55;2.47;;;6.60;99.90;;;;;;4940670;28;20556;-59
2023/03/03 09:34:22;;;;;;;8.88;3.20;;;6.60;99.90;;;;;;4606922;28;10000561;-57
2023/03/03 09:36:51;;;;;;;9.65;2.92;;;6.70;99.90;;;;;;4948375;28;20055;-57
2023/03/03 09:39:22;;;;;;;7.18;2.80;;;6.70;99.90;;;;;;4948812;29;20138;-57
2023/03/03 09:42:10;;;;;;;6.72;3.42;;;6.70;99.90;;;;;;4948135;29;20047;-56
2023/03/03 09:44:41;;;;;;;7.53;2.92;;;6.80;99.90;;;;;;4948244;29;20047;-57
2023/03/03 09:47:20;;;;;;;5.13;2.42;;;6.80;99.90;;;;;;4948257;28;20047;-57
2023/03/03 09:50:25;;;;;;;7.82;2.42;;;6.90;99.90;;;;;;4948057;29;20115;-56
2023/03/03 09:52:56;;;;;;;9.50;2.45;;;7.00;99.90;;;;;;4934316;29;20522;-57
2023/03/03 09:55:56;;;;;;;5.00;2.33;;;7.00;99.90;;;;;;4950594;29;20312;-60
2023/03/03 09:58:29;;;;;;;4.93;2.15;;;7.10;99.90;;;;;;4950568;29;20055;-56
2023/03/03 10:01:25;;;;;;;3.63;2.40;;;7.00;99.90;;;;;;4934531;29;20387;-60
2023/03/03 10:03:52;;;;;;;4.20;1.90;;;7.10;99.90;;;;;;4865726;29;20613;-52
2023/03/03 10:06:40;;;;;;;21.48;2.50;;;7.10;99.90;;;;;;4950777;29;20047;-56
2023/03/03 10:09:10;;;;;;;8.95;2.42;;;7.10;99.90;;;;;;4932931;29;20061;-60
2023/03/03 10:11:46;;;;;;;7.60;2.25;;;7.10;99.90;;;;;;4950204;29;20054;-56
2023/03/03 10:15:03;;;;;;;12.85;2.63;;;7.10;99.90;;;;;;4916368;29;20062;-57
2023/03/03 10:17:36;;;;;;;4.32;1.80;;;7.10;99.90;;;;;;4943114;29;20143;-56
2023/03/03 10:20:26;;;;;;;6.75;1.80;;;7.10;99.90;;;;;;4931849;29;20094;-57
2023/03/03 10:23:19;;;;;;;9.63;2.65;;;7.10;99.90;;;;;;4948474;29;20138;-54
2023/03/03 10:26:02;;;;;;;10.52;2.58;;;7.00;99.90;;;;;;4933116;29;20142;-58
2023/03/03 10:28:58;;;;;;;7.25;2.08;;;7.00;99.90;;;;;;4932765;29;20133;-55
2023/03/03 10:31:56;;;;;;;7.40;2.40;;;6.90;99.90;;;;;;4940140;28;20047;-56
2023/03/03 10:34:40;;;;;;;6.05;1.92;;;6.80;99.90;;;;;;4949708;29;20110;-59
2023/03/03 10:37:45;;;;;;;7.47;2.40;;;6.90;99.90;;;;;;4933435;29;20489;-56
2023/03/03 10:40:24;;;;;;;4.82;1.95;;;6.90;99.90;;;;;;4932792;29;20058;-56
2023/03/03 10:43:13;;;;;;;9.07;3.75;;;7.00;99.90;;;;;;4933750;29;20065;-57
2023/03/03 10:46:05;;;;;;;5.22;2.33;;;6.90;99.90;;;;;;4935563;29;20078;-56
2023/03/03 10:48:44;;;;;;;5.68;1.98;;;7.00;99.90;;;;;;4949851;29;20113;-56
2023/03/03 10:51:30;;;;;;;8.35;2.05;;;7.00;99.90;;;;;;4949995;29;20051;-57
2023/03/03 10:54:21;;;;;;;14.95;2.90;;;7.10;99.90;;;;;;4917966;29;20109;-55
2023/03/03 10:56:56;;;;;;;12.68;3.70;;;7.10;99.90;;;;;;4950106;29;20047;-55
2023/03/03 10:59:46;;;;;;;7.05;1.85;;;7.20;99.90;;;;;;4932181;29;20043;-55
2023/03/03 11:02:25;;;;;;;8.60;1.50;;;7.20;99.90;;;;;;4932968;29;20051;-57
2023/03/03 11:05:10;;;;;;;12.50;3.15;;;7.30;99.90;;;;;;4948411;29;20054;-56
2023/03/03 11:07:49;;;;;;;6.05;2.00;;;7.40;99.90;;;;;;4950051;29;20090;-59
2023/03/03 11:10:24;;;;;;;4.60;1.75;;;7.40;99.90;;;;;;4934386;29;20315;-56
2023/03/03 11:13:25;;;;;;;6.28;1.95;;;7.40;99.90;;;;;;4933445;29;20051;-57
2023/03/03 11:16:16;;;;;;;3.33;1.40;;;7.50;99.90;;;;;;4933424;29;20051;-56
2023/03/03 11:19:16;;;;;;;7.25;1.75;;;7.60;99.90;;;;;;4931904;29;20055;-59
2023/03/03 11:21:48;;;;;;;12.75;1.80;;;7.50;99.90;;;;;;4914013;29;20044;-55
2023/03/03 11:24:22;;;;;;;5.25;1.25;;;7.70;99.90;;;;;;4950520;29;20051;-56
2023/03/03 11:27:14;;;;;;;8.15;2.20;;;7.60;99.90;;;;;;4933299;29;20047;-56
2023/03/03 11:30:02;;;;;;;9.90;2.83;;;7.70;99.90;;;;;;4935364;29;20474;-53
2023/03/03 11:32:41;;;;;;;3.88;1.83;;;7.70;99.90;;;;;;4933117;29;20052;-54
2023/03/03 11:35:32;;;;;;;10.00;1.90;;;7.70;99.90;;;;;;4949228;29;20494;-54
2023/03/03 11:38:10;;;;;;;4.85;1.55;;;7.70;99.90;;;;;;4925155;29;20077;-55
2023/03/03 11:40:50;;;;;;;13.30;1.95;;;7.70;99.90;;;;;;4949678;29;20136;-54
2023/03/03 11:43:48;;;;;;;7.15;1.60;;;7.70;99.90;;;;;;4934389;29;20138;-56
2023/03/03 11:46:17;;;;;;;3.70;1.35;;;7.70;99.90;;;;;;4932620;29;20057;-54
2023/03/03 11:49:05;;;;;;;2.53;1.23;;;7.70;99.90;;;;;;4917372;29;20043;-55
2023/03/03 11:52:02;;;;;;;2.42;1.30;;;7.70;99.90;;;;;;4916990;29;20053;-57
2023/03/03 11:54:44;;;;;;;5.70;1.98;;;7.70;99.90;;;;;;4573423;29;10000335;-56
2023/03/03 11:57:22;;;;;;;6.38;1.45;;;7.60;99.90;;;;;;4946529;29;20059;-56
2023/03/03 12:00:15;;;;;;;14.23;1.70;;;7.50;99.90;;;;;;4950091;29;20054;-53
2023/03/03 12:02:47;;;;;;;6.65;1.65;;;7.50;99.90;;;;;;4932567;29;20051;-58
2023/03/03 12:05:38;;;;;;;10.48;1.10;;;7.50;99.90;;;;;;4949671;29;20142;-57
2023/03/03 12:08:14;;;;;;;2.50;1.10;;;7.50;99.90;;;;;;4948994;29;20059;-61
2023/03/03 12:10:46;;;;;;;6.60;1.23;;;7.50;99.90;;;;;;4951284;28;20180;-56
2023/03/03 12:13:35;;;;;;;1.85;1.27;;;7.40;99.90;;;;;;4955124;28;20062;-59
2023/03/03 12:16:21;;;;;;;5.97;1.38;;;7.30;99.90;;;;;;4952766;29;20055;-56
2023/03/03 12:18:51;;;;;;;4.15;1.13;;;7.30;99.90;;;;;;4933947;29;20043;-54
2023/03/03 12:21:56;;;;;;;7.28;1.88;;;7.30;99.90;;;;;;4952638;29;20051;-56
2023/03/03 12:24:42;;;;;;;9.23;1.08;;;7.30;99.90;;;;;;4884125;29;20505;-57
2023/03/03 12:27:11;;;;;;;8.23;1.27;;;7.30;99.90;;;;;;4921216;29;20519;-54
2023/03/03 12:29:45;;;;;;;5.38;1.40;;;7.30;99.90;;;;;;4953006;29;20047;-55
2023/03/03 12:32:31;;;;;;;4.22;1.20;;;7.30;99.90;;;;;;4952585;29;20043;-57
2023/03/03 12:35:10;;;;;;;9.07;1.30;;;7.30;99.90;;;;;;4944497;29;20130;-56
2023/03/03 12:37:52;;;;;;;5.70;1.58;;;7.30;99.90;;;;;;4934928;29;20039;-56
2023/03/03 12:40:23;;;;;;;5.68;1.40;;;7.30;99.90;;;;;;4952544;29;20495;-56
2023/03/03 12:42:59;;;;;;;4.22;1.25;;;7.30;99.90;;;;;;4920066;29;20313;-56
2023/03/03 12:45:52;;;;;;;4.15;0.90;;;7.30;99.90;;;;;;4936165;29;20117;-55
2023/03/03 12:48:20;;;;;;;17.77;1.75;;;7.30;99.90;;;;;;4951903;29;20055;-56
2023/03/03 12:51:31;;;;;;;4.40;1.13;;;7.40;99.90;;;;;;4952184;29;20486;-56
2023/03/03 12:54:19;;;;;;;4.05;1.27;;;7.50;99.90;;;;;;4943875;29;20392;-54
2023/03/03 12:57:08;;;;;;;6.53;1.00;;;7.70;99.90;;;;;;4917955;29;20127;-56
2023/03/03 12:59:44;;;;;;;4.88;1.05;;;7.80;99.90;;;;;;4951386;29;20047;-55
2023/03/03 13:02:52;;;;;;;6.05;1.02;;;7.90;99.90;;;;;;4952184;29;20066;-53
2023/03/03 13:05:43;;;;;;;2.78;0.95;;;8.00;99.90;;;;;;4934750;29;20506;-55
2023/03/03 13:08:49;;;;;;;2.88;0.93;;;7.90;99.90;;;;;;4934822;29;20055;-54
2023/03/03 13:11:36;;;;;;;5.30;1.08;;;7.90;99.90;;;;;;4944798;29;20055;-56
2023/03/03 13:14:33;;;;;;;4.85;0.88;;;7.90;99.90;;;;;;4934614;29;20130;-55
2023/03/03 13:17:12;;;;;;;2.97;0.77;;;7.80;99.90;;;;;;4952095;29;20057;-57
2023/03/03 13:19:48;;;;;;;17.65;1.38;;;7.80;99.90;;;;;;4951593;29;20509;-56
2023/03/03 13:22:28;;;;;;;10.55;1.02;;;7.70;99.90;;;;;;4934100;29;20126;-57
2023/03/03 13:25:01;;;;;;;8.48;2.30;;;7.70;99.90;;;;;;4935724;29;20059;-54
2023/03/03 13:27:34;;;;;;;1.67;0.90;;;7.70;99.90;;;;;;4934655;29;20051;-57
2023/03/03 13:30:29;;;;;;;4.82;1.15;;;7.70;99.90;;;;;;4918929;29;20046;-57